Time;durP1;ratioP1;P1;durP2;ratioP2;P2;SDS_P1;SDS_P2;PMS_P1;PMS_P2;Temp;Humidity;BMP_temperature;BMP_pressure;BME280_temperature;BME280_humidity;BME280_pressure;Samples;Min_cycle;Max_cycle;Signal;HPM_P1;HPM_P2
2022/02/08 00:01:43;;;;;;;4.33;1.93;;;6.20;38.80;;;;;;10536674;28;20234;-72
2022/02/08 00:06:47;;;;;;;4.23;1.80;;;6.20;38.90;;;;;;10536910;27;20225;-72
2022/02/08 00:11:50;;;;;;;3.70;1.60;;;6.20;38.90;;;;;;10536969;28;20219;-72
2022/02/08 00:16:55;;;;;;;4.60;1.80;;;6.20;38.90;;;;;;10534503;28;20244;-72
2022/02/08 00:21:58;;;;;;;4.53;1.83;;;6.20;38.80;;;;;;10537232;28;20234;-72
2022/02/08 00:27:02;;;;;;;3.37;1.57;;;6.20;38.90;;;;;;10532560;28;20571;-72
2022/02/08 00:32:07;;;;;;;6.43;2.07;;;6.20;38.80;;;;;;10532992;28;20219;-68
2022/02/08 00:37:11;;;;;;;4.57;1.80;;;6.30;38.70;;;;;;10535353;28;20230;-68
2022/02/08 00:42:14;;;;;;;3.53;1.80;;;6.30;38.80;;;;;;10536592;28;20234;-69
2022/02/08 00:47:27;;;;;;;3.93;1.67;;;6.30;38.60;;;;;;10532265;28;20227;-68
2022/02/08 00:52:30;;;;;;;5.67;1.90;;;6.30;38.40;;;;;;10534047;28;20234;-68
2022/02/08 00:57:33;;;;;;;3.27;1.77;;;6.30;38.50;;;;;;10530366;28;20230;-68
2022/02/08 01:02:37;;;;;;;4.23;1.80;;;6.30;38.40;;;;;;10535672;28;20234;-69
2022/02/08 01:07:42;;;;;;;4.57;1.67;;;6.20;38.40;;;;;;10534673;28;20232;-68
2022/02/08 01:12:47;;;;;;;4.80;2.27;;;6.20;38.30;;;;;;10534891;28;20247;-68
2022/02/08 01:17:56;;;;;;;3.10;1.70;;;6.20;38.30;;;;;;10540267;28;20238;-69
2022/02/08 01:23:02;;;;;;;4.80;1.77;;;6.20;38.20;;;;;;10539419;27;20233;-69
2022/02/08 01:28:16;;;;;;;4.33;1.80;;;6.20;38.10;;;;;;10541478;27;20298;-69
2022/02/08 01:33:39;;;;;;;4.17;1.90;;;6.10;38.20;;;;;;10538650;27;20236;-69
2022/02/08 01:38:52;;;;;;;4.63;1.77;;;6.10;38.10;;;;;;10540975;28;20646;-68
2022/02/08 01:44:12;;;;;;;5.53;1.93;;;6.00;38.10;;;;;;10543535;28;20215;-69
2022/02/08 01:49:30;;;;;;;4.93;1.70;;;6.00;38.10;;;;;;10538823;27;20234;-70
2022/02/08 01:54:34;;;;;;;4.23;1.80;;;6.00;38.10;;;;;;10536564;27;20223;-70
2022/02/08 01:59:37;;;;;;;3.37;1.50;;;6.00;38.10;;;;;;10549754;27;20222;-70
2022/02/08 02:04:42;;;;;;;2.93;1.90;;;5.90;38.20;;;;;;10542783;27;20223;-70
2022/02/08 02:09:46;;;;;;;3.73;1.50;;;5.90;38.20;;;;;;10544444;27;20560;-70
2022/02/08 02:14:49;;;;;;;3.50;1.80;;;5.90;38.30;;;;;;10544554;27;20229;-70
2022/02/08 02:19:54;;;;;;;2.83;1.90;;;5.90;38.40;;;;;;10543661;27;20230;-70
2022/02/08 02:24:58;;;;;;;4.93;1.80;;;5.90;38.20;;;;;;10541076;27;20228;-69
2022/02/08 02:30:01;;;;;;;4.00;1.83;;;5.90;38.30;;;;;;10544064;28;20326;-70
2022/02/08 02:35:05;;;;;;;2.93;1.70;;;5.80;38.40;;;;;;10540727;27;20220;-70
2022/02/08 02:40:31;;;;;;;2.60;1.57;;;5.80;38.50;;;;;;10544665;28;20574;-70
2022/02/08 02:45:34;;;;;;;3.53;1.87;;;5.80;38.40;;;;;;10545202;27;20738;-70
2022/02/08 02:50:38;;;;;;;3.50;1.97;;;5.80;38.40;;;;;;10567241;22;20223;-75
2022/02/08 02:55:42;;;;;;;4.03;1.50;;;5.80;38.40;;;;;;10533005;28;20220;-75
2022/02/08 03:00:51;;;;;;;4.10;1.77;;;5.90;38.40;;;;;;10532775;28;20235;-75
2022/02/08 03:17:29;;;;;;;3.70;1.93;;;5.80;38.40;;;;;;10532461;28;20228;-76
2022/02/08 03:22:14;;;;;;;4.87;1.90;;;5.80;38.40;;;;;;10529975;28;20260;-76
2022/02/08 03:27:19;;;;;;;3.93;1.87;;;5.70;38.50;;;;;;10531579;28;20219;-76
2022/02/08 03:32:23;;;;;;;5.73;2.00;;;5.60;38.40;;;;;;10531910;28;20236;-76
2022/02/08 03:37:28;;;;;;;3.20;1.77;;;5.70;38.60;;;;;;10531462;28;20250;-75
2022/02/08 03:42:37;;;;;;;5.10;2.00;;;5.70;38.50;;;;;;10531193;28;20227;-76
2022/02/08 03:47:40;;;;;;;5.07;1.90;;;5.70;38.40;;;;;;10531076;28;20223;-76
2022/02/08 03:52:43;;;;;;;4.80;1.70;;;5.70;38.40;;;;;;10530088;28;20234;-76
2022/02/08 03:57:48;;;;;;;3.33;2.07;;;5.80;38.40;;;;;;10530658;28;20247;-76
2022/02/08 04:02:55;;;;;;;3.23;1.80;;;5.70;38.30;;;;;;10519567;28;20224;-76
2022/02/08 04:08:02;;;;;;;2.13;1.73;;;5.70;38.40;;;;;;10530281;28;20286;-76
2022/02/08 04:13:16;;;;;;;3.37;2.00;;;5.70;38.40;;;;;;10528772;28;20231;-76
2022/02/08 04:18:43;;;;;;;3.80;1.53;;;5.70;38.50;;;;;;10526096;28;20235;-76
2022/02/08 04:34:44;;;;;;;4.57;1.60;;;5.70;38.60;;;;;;10517424;28;20228;-76
2022/02/08 04:40:01;;;;;;;4.37;1.70;;;5.70;38.60;;;;;;10522386;28;20227;-76
2022/02/08 04:45:14;;;;;;;4.53;1.80;;;5.70;38.60;;;;;;10517944;28;20219;-76
2022/02/08 04:50:18;;;;;;;4.17;1.90;;;5.70;38.40;;;;;;10527454;28;20242;-76
2022/02/08 04:55:35;;;;;;;3.57;1.80;;;5.70;38.40;;;;;;10522620;28;20235;-76
2022/02/08 05:00:45;;;;;;;2.57;1.50;;;5.80;38.40;;;;;;10523261;28;20756;-76
2022/02/08 05:43:26;;;;;;;5.70;1.70;;;6.00;38.20;;;;;;10533782;28;20222;-76
2022/02/08 05:48:34;;;;;;;3.53;1.70;;;5.90;38.10;;;;;;10533704;28;20219;-75
2022/02/08 05:53:45;;;;;;;4.10;1.70;;;6.00;38.20;;;;;;10530553;28;20231;-76
2022/02/08 05:58:49;;;;;;;4.43;1.70;;;6.00;38.00;;;;;;10521243;28;20247;-77
2022/02/08 06:03:55;;;;;;;3.03;1.70;;;6.00;38.00;;;;;;10520738;28;20228;-76
2022/02/08 06:08:58;;;;;;;3.20;1.40;;;6.10;37.90;;;;;;10525584;28;20703;-75
2022/02/08 06:14:03;;;;;;;2.27;1.50;;;6.10;37.90;;;;;;10527946;28;20239;-75
2022/02/08 06:19:08;;;;;;;4.00;2.60;;;6.20;38.10;;;;;;10531682;28;20238;-74
2022/02/08 06:24:13;;;;;;;4.07;2.00;;;6.20;37.80;;;;;;10534219;28;20238;-74
2022/02/08 06:29:21;;;;;;;2.33;1.40;;;6.20;37.80;;;;;;10534107;28;20261;-74
2022/02/08 06:34:30;;;;;;;5.67;2.50;;;6.20;37.80;;;;;;10533890;28;20231;-74
2022/02/08 06:39:36;;;;;;;3.50;1.90;;;6.30;37.90;;;;;;10533652;28;20254;-74
2022/02/08 06:44:39;;;;;;;3.20;1.73;;;6.30;37.90;;;;;;10533489;28;20227;-74
2022/02/08 06:49:43;;;;;;;4.40;1.90;;;6.30;37.90;;;;;;10533263;28;20216;-74
2022/02/08 06:54:48;;;;;;;3.20;1.83;;;6.30;37.90;;;;;;10533086;28;20318;-74
2022/02/08 06:59:53;;;;;;;3.57;1.90;;;6.30;37.90;;;;;;10532804;28;20227;-74
2022/02/08 07:04:58;;;;;;;4.80;2.30;;;6.40;37.90;;;;;;10532862;28;20595;-74
2022/02/08 07:10:03;;;;;;;3.57;1.97;;;6.40;37.90;;;;;;10532473;28;20699;-74
2022/02/08 07:15:11;;;;;;;2.47;1.90;;;6.50;38.00;;;;;;10532028;28;20230;-74
2022/02/08 07:20:17;;;;;;;2.70;1.60;;;6.50;38.00;;;;;;10531463;28;20235;-74
2022/02/08 07:25:20;;;;;;;4.33;2.23;;;6.50;38.00;;;;;;10532174;28;20228;-74
2022/02/08 07:30:24;;;;;;;4.63;1.80;;;6.50;38.00;;;;;;10531716;28;20231;-74
2022/02/08 07:35:33;;;;;;;2.53;1.70;;;6.50;38.00;;;;;;10531735;28;20657;-74
2022/02/08 07:46:02;;;;;;;2.13;1.53;;;6.50;38.00;;;;;;10530194;28;20216;-74
2022/02/08 07:51:09;;;;;;;5.00;2.00;;;6.60;38.10;;;;;;10525833;28;20232;-76
2022/02/08 07:56:12;;;;;;;7.73;2.27;;;6.60;38.10;;;;;;10510887;28;20227;-77
2022/02/08 08:01:15;;;;;;;4.23;1.93;;;6.70;38.20;;;;;;10520224;28;20698;-76
2022/02/08 08:06:20;;;;;;;3.17;1.73;;;6.70;38.20;;;;;;10516856;28;20607;-76
2022/02/08 08:11:24;;;;;;;4.90;2.10;;;6.70;38.20;;;;;;10515609;28;20594;-77
2022/02/08 08:16:38;;;;;;;4.63;1.80;;;6.70;38.10;;;;;;10514017;28;20590;-76
2022/02/08 08:21:43;;;;;;;4.00;1.80;;;6.80;38.30;;;;;;10509946;28;20229;-76
2022/02/08 08:26:46;;;;;;;5.10;1.80;;;6.80;38.30;;;;;;10511050;28;20235;-76
2022/02/08 08:31:49;;;;;;;3.77;1.80;;;6.90;38.30;;;;;;10512079;28;20228;-77
2022/02/08 08:36:55;;;;;;;4.53;1.87;;;7.00;38.40;;;;;;10514214;28;20230;-77
2022/02/08 08:42:09;;;;;;;4.90;1.73;;;7.10;38.20;;;;;;10519812;28;20232;-77
2022/02/08 08:52:40;;;;;;;3.60;1.67;;;7.20;38.10;;;;;;10518858;28;20651;-76
2022/02/08 08:57:43;;;;;;;4.50;1.63;;;7.20;38.10;;;;;;10522149;28;20225;-76
2022/02/08 09:02:46;;;;;;;2.73;1.53;;;7.30;38.30;;;;;;10520952;28;21600;-76
2022/02/08 09:07:53;;;;;;;2.53;1.40;;;7.40;38.20;;;;;;10526454;28;20222;-76
2022/02/08 09:13:07;;;;;;;3.17;1.80;;;7.40;37.60;;;;;;10515185;28;20228;-76
2022/02/08 09:24:17;;;;;;;5.40;2.17;;;7.60;37.90;;;;;;10520159;28;20223;-76
2022/02/08 09:29:24;;;;;;;4.43;1.93;;;7.70;37.70;;;;;;10521204;28;20612;-76
2022/02/08 09:34:29;;;;;;;3.60;1.87;;;7.80;37.60;;;;;;10518121;28;20238;-76
2022/02/08 09:39:33;;;;;;;3.43;1.90;;;7.90;37.90;;;;;;10522273;28;20236;-77
2022/02/08 09:44:39;;;;;;;3.40;1.70;;;7.90;37.50;;;;;;10520421;28;20801;-76
2022/02/08 09:49:54;;;;;;;3.27;1.73;;;8.00;37.50;;;;;;10520785;28;20231;-77
2022/02/08 09:55:05;;;;;;;4.23;2.30;;;8.00;37.50;;;;;;10521452;28;20222;-77
2022/02/08 10:00:10;;;;;;;4.20;1.60;;;8.10;37.40;;;;;;10521186;28;20234;-76
2022/02/08 10:05:14;;;;;;;7.17;4.73;;;8.20;37.20;;;;;;10519224;28;20230;-76
2022/02/08 10:10:26;;;;;;;6.87;4.57;;;8.20;37.30;;;;;;10524274;28;20596;-76
2022/02/08 10:26:38;;;;;;;4.77;3.37;;;8.40;37.30;;;;;;10520900;28;20280;-76
2022/02/08 10:32:02;;;;;;;4.77;2.20;;;8.50;37.40;;;;;;10521697;28;20232;-75
2022/02/08 10:42:30;;;;;;;2.63;1.90;;;8.70;37.50;;;;;;10519973;28;20254;-76
2022/02/08 10:47:34;;;;;;;3.67;2.03;;;8.70;37.20;;;;;;10523405;28;20229;-77
2022/02/08 10:52:40;;;;;;;3.90;2.57;;;8.80;37.30;;;;;;10521882;28;20227;-77
2022/02/08 10:57:55;;;;;;;4.83;2.40;;;8.90;37.60;;;;;;10514675;28;20222;-77
2022/02/08 11:03:02;;;;;;;2.73;1.80;;;9.00;37.50;;;;;;10509814;28;20224;-78
2022/02/08 11:08:27;;;;;;;3.60;1.70;;;9.10;37.50;;;;;;10515984;28;20214;-77
2022/02/08 11:19:09;;;;;;;5.47;2.53;;;9.20;37.30;;;;;;10506961;28;20315;-76
2022/02/08 11:24:24;;;;;;;3.80;2.33;;;9.30;37.40;;;;;;10513192;28;20238;-76
2022/02/08 11:29:34;;;;;;;3.33;2.10;;;9.40;37.50;;;;;;10506479;28;20234;-75
2022/02/08 11:42:49;;;;;;;3.83;1.90;;;9.50;36.90;;;;;;10505610;28;20223;-78
2022/02/08 11:46:37;;;;;;;3.07;1.93;;;9.60;36.40;;;;;;10502859;28;20718;-78
2022/02/08 11:51:56;;;;;;;4.10;1.80;;;9.70;36.70;;;;;;10508298;28;20241;-77
2022/02/08 12:03:11;;;;;;;2.93;1.77;;;9.90;37.20;;;;;;10453434;28;20224;-78
2022/02/08 12:08:17;;;;;;;2.50;1.27;;;10.00;35.90;;;;;;10496797;28;20222;-80
2022/02/08 12:13:43;;;;;;;5.37;1.50;;;10.20;35.90;;;;;;10503946;28;20230;-79
2022/02/08 12:35:33;;;;;;;2.70;2.30;;;10.50;35.00;;;;;;10520882;28;20229;-77
2022/02/08 13:02:36;;;;;;;3.00;2.10;;;10.70;34.50;;;;;;10518848;28;20596;-77
2022/02/08 13:19:13;;;;;;;4.37;2.80;;;10.80;34.60;;;;;;10519518;28;20227;-76
2022/02/08 14:01:47;;;;;;;2.63;1.70;;;11.30;33.70;;;;;;10520755;28;20223;-75
2022/02/08 14:06:59;;;;;;;4.47;2.10;;;11.40;33.90;;;;;;10512211;28;20226;-75
2022/02/08 14:18:04;;;;;;;3.50;1.57;;;11.60;33.70;;;;;;10512456;28;20235;-75
2022/02/08 14:23:13;;;;;;;2.07;1.33;;;11.70;33.80;;;;;;10508527;28;20223;-75
2022/02/08 15:05:26;;;;;;;1.63;1.17;;;11.80;34.30;;;;;;10512061;28;20230;-75
2022/02/08 15:06:13;;;;;;;1.93;1.33;;;11.90;33.90;;;;;;10507186;28;20224;-74
2022/02/08 15:11:16;;;;;;;1.87;1.30;;;11.90;33.90;;;;;;10504588;28;20224;-74
2022/02/08 15:16:29;;;;;;;3.03;1.63;;;11.90;33.80;;;;;;10518662;28;20224;-74
2022/02/08 15:21:33;;;;;;;2.47;1.33;;;11.80;33.20;;;;;;10513351;28;20695;-75
2022/02/08 15:26:37;;;;;;;2.43;1.70;;;11.80;33.80;;;;;;10515409;28;20211;-74
2022/02/08 15:31:42;;;;;;;6.57;4.00;;;11.80;33.40;;;;;;10516947;28;20242;-74
2022/02/08 15:36:45;;;;;;;2.30;1.87;;;11.70;33.20;;;;;;10517568;28;20234;-74
2022/02/08 15:41:48;;;;;;;4.73;3.03;;;11.70;33.30;;;;;;10513817;28;20236;-74
2022/02/08 15:46:54;;;;;;;4.57;2.90;;;11.60;33.30;;;;;;10513648;28;20251;-75
2022/02/08 15:51:59;;;;;;;4.63;2.90;;;11.50;33.20;;;;;;10512820;28;20220;-74
2022/02/08 15:57:31;;;;;;;8.37;5.87;;;11.50;33.70;;;;;;10512788;28;20224;-74
2022/02/08 16:07:55;;;;;;;10.03;6.50;;;11.50;33.60;;;;;;10514983;28;20226;-75
2022/02/08 16:18:28;;;;;;;5.80;4.13;;;11.40;34.00;;;;;;10512431;28;20227;-75
2022/02/08 16:24:02;;;;;;;5.20;4.03;;;11.40;33.70;;;;;;10520598;28;20223;-75
2022/02/08 16:29:18;;;;;;;10.20;7.03;;;11.50;34.00;;;;;;10515395;28;20224;-75
2022/02/08 16:56:03;;;;;;;6.37;3.90;;;11.40;33.90;;;;;;10520330;28;20231;-75
2022/02/08 17:01:14;;;;;;;5.70;4.10;;;11.30;34.10;;;;;;10513017;28;20234;-75
2022/02/08 17:06:20;;;;;;;9.93;6.80;;;11.30;34.20;;;;;;10516879;28;20246;-75
2022/02/08 17:11:34;;;;;;;9.67;6.87;;;11.20;34.00;;;;;;10523922;28;20234;-75
2022/02/08 17:16:45;;;;;;;18.17;10.93;;;11.10;34.20;;;;;;10524425;28;20227;-75
2022/02/08 17:48:42;;;;;;;9.63;6.33;;;11.00;34.80;;;;;;10469687;28;20232;-75
2022/02/08 17:53:47;;;;;;;9.93;8.93;;;11.00;34.80;;;;;;10522259;28;20239;-75
2022/02/08 17:58:52;;;;;;;7.97;6.93;;;11.10;34.80;;;;;;10513652;28;20227;-74
2022/02/08 18:03:55;;;;;;;9.07;7.17;;;11.10;34.80;;;;;;10521126;28;20224;-75
2022/02/08 18:09:01;;;;;;;7.70;6.80;;;11.20;35.00;;;;;;10516438;28;20224;-75
2022/02/08 18:14:07;;;;;;;9.40;8.40;;;11.10;34.80;;;;;;10513241;28;20235;-74
2022/02/08 18:19:14;;;;;;;8.17;6.80;;;11.10;34.80;;;;;;10509345;28;20235;-75
2022/02/08 18:24:42;;;;;;;6.17;5.27;;;11.10;34.60;;;;;;10514754;28;20235;-75
2022/02/08 18:56:48;;;;;;;3.53;2.70;;;11.00;34.70;;;;;;10516479;28;20234;-75
2022/02/08 19:07:28;;;;;;;3.70;2.50;;;10.90;34.70;;;;;;10433417;28;20587;-75
2022/02/08 19:12:39;;;;;;;5.43;3.07;;;10.90;34.70;;;;;;10520100;28;20234;-76
2022/02/08 19:18:15;;;;;;;3.50;2.47;;;10.90;34.90;;;;;;10484199;28;20226;-75
2022/02/08 19:23:18;;;;;;;4.80;2.67;;;10.90;34.80;;;;;;10519083;28;20763;-77
2022/02/08 19:28:23;;;;;;;4.03;2.70;;;11.00;34.90;;;;;;10518887;28;20231;-74
2022/02/08 19:33:26;;;;;;;2.57;2.30;;;11.00;34.90;;;;;;10522964;28;20234;-74
2022/02/08 19:38:36;;;;;;;4.90;2.20;;;11.00;34.80;;;;;;10521606;28;20239;-74
2022/02/08 19:43:43;;;;;;;3.27;2.27;;;11.10;34.80;;;;;;10516835;28;20223;-75
2022/02/08 19:48:47;;;;;;;2.67;2.10;;;11.10;34.80;;;;;;10522650;28;20224;-74
2022/02/08 19:53:52;;;;;;;3.63;2.50;;;11.10;34.80;;;;;;10506816;28;20220;-74
2022/02/08 19:58:59;;;;;;;4.73;2.57;;;11.10;34.90;;;;;;10522863;28;20227;-74
2022/02/08 20:04:06;;;;;;;3.53;2.50;;;11.10;34.80;;;;;;10505484;28;20219;-75
2022/02/08 20:09:10;;;;;;;5.90;4.27;;;11.10;34.80;;;;;;10519702;28;20220;-74
2022/02/08 20:14:21;;;;;;;5.93;3.83;;;11.20;35.00;;;;;;10519829;28;20505;-75
2022/02/08 20:19:25;;;;;;;5.17;3.67;;;11.20;35.00;;;;;;10520572;28;20690;-75
2022/02/08 20:24:29;;;;;;;5.57;3.30;;;11.20;35.00;;;;;;10517666;28;20227;-75
2022/02/08 20:29:35;;;;;;;5.33;3.20;;;11.20;35.00;;;;;;10514486;28;20226;-75
2022/02/08 20:34:39;;;;;;;8.93;4.63;;;11.10;34.80;;;;;;10510898;28;20225;-76
2022/02/08 20:39:43;;;;;;;4.67;2.93;;;11.10;34.80;;;;;;10498037;28;20220;-75
2022/02/08 20:44:47;;;;;;;5.23;3.13;;;11.10;34.80;;;;;;10492322;28;20822;-75
2022/02/08 20:49:57;;;;;;;6.43;3.10;;;11.10;34.90;;;;;;10491892;28;20314;-75
2022/02/08 20:55:06;;;;;;;6.00;2.87;;;11.00;35.00;;;;;;10491805;28;20226;-75
2022/02/08 21:00:13;;;;;;;4.10;2.50;;;11.00;35.20;;;;;;10497004;28;20222;-75
2022/02/08 21:05:32;;;;;;;3.23;2.33;;;11.00;35.50;;;;;;10497144;28;20215;-75
2022/02/08 21:10:35;;;;;;;4.53;2.30;;;10.90;35.30;;;;;;10496712;22;20228;-72
2022/02/08 21:15:42;;;;;;;2.40;1.77;;;10.90;35.50;;;;;;10490581;28;20714;-72
2022/02/08 21:20:47;;;;;;;1.77;1.67;;;10.90;35.80;;;;;;10478157;28;20807;-72
2022/02/08 21:25:52;;;;;;;2.33;1.80;;;10.80;35.80;;;;;;10496036;28;20957;-71
2022/02/08 21:52:30;;;;;;;2.30;1.17;;;10.70;36.70;;;;;;10499964;28;20231;-73
2022/02/08 21:57:42;;;;;;;2.60;1.40;;;10.70;36.50;;;;;;10499602;28;20224;-69
2022/02/08 22:02:47;;;;;;;2.00;1.80;;;10.70;36.60;;;;;;10496498;28;20671;-69
2022/02/08 22:08:02;;;;;;;2.77;1.53;;;10.70;36.90;;;;;;10497795;28;20735;-71
2022/02/08 22:18:42;;;;;;;1.33;1.10;;;10.70;36.80;;;;;;10495878;28;20238;-69
2022/02/08 22:23:54;;;;;;;1.53;1.27;;;10.80;37.00;;;;;;10497696;28;20739;-69
2022/02/08 22:29:10;;;;;;;2.57;1.30;;;10.80;36.80;;;;;;10499594;28;20226;-69
2022/02/08 22:34:18;;;;;;;1.33;1.20;;;10.80;36.70;;;;;;10499640;28;20223;-69
2022/02/08 22:39:29;;;;;;;2.63;1.27;;;10.80;36.80;;;;;;10496972;28;20232;-69
2022/02/08 22:44:39;;;;;;;1.20;1.10;;;10.80;36.80;;;;;;10499364;28;20877;-69
2022/02/08 22:49:43;;;;;;;1.07;0.90;;;10.80;36.90;;;;;;10502721;28;20719;-71
2022/02/08 22:54:47;;;;;;;1.60;0.90;;;10.80;37.10;;;;;;10495910;28;20759;-71
2022/02/08 22:59:50;;;;;;;1.47;1.20;;;10.80;37.00;;;;;;10495972;28;20745;-71
2022/02/08 23:04:55;;;;;;;2.23;1.50;;;10.80;37.00;;;;;;10489929;28;20219;-72
2022/02/08 23:10:03;;;;;;;3.93;1.50;;;10.80;37.20;;;;;;10492875;28;20226;-72
2022/02/08 23:15:22;;;;;;;2.07;1.30;;;10.80;37.00;;;;;;10492267;28;20235;-71
2022/02/08 23:41:47;;;;;;;1.03;1.00;;;10.80;37.20;;;;;;10505442;28;20723;-72
2022/02/08 23:46:51;;;;;;;1.93;1.00;;;10.80;37.10;;;;;;10499558;28;20228;-71
2022/02/08 23:51:58;;;;;;;2.93;1.30;;;10.90;37.20;;;;;;10502761;28;20227;-71
2022/02/08 23:57:05;;;;;;;1.87;1.50;;;10.90;37.30;;;;;;10503363;28;20231;-71
